Capitol Logistics 7405

Operating for MZN



KAFW
Fort Worth Alliance Airport
Fort Worth, Texas
KPDX
Portland International Airport
Portland, Oregon

Activity Log

Date Flight Route Aircraft Duration
07/11/2021 CPX7405 SWABR7 HULZE TXO CIM KD45U KU63Q BYI BOI J15 IMB JOTBA HHOOD4 B738 3h 58m

Route Details

Aircraft Information
Group: North America Fleet
Types: B738,B752,B762,B763
Route Data
Distance: 1389nm
Duration: 3h 50m
Recm'd Route: SWABR7 HULZE TXO CIM KD45U KU63Q BYI BOI J15 IMB JOTBA HHOOD4
Origin Wx: KAFW 160753Z 32006KT 10SM CLR 10/06 A3031 RMK AO2 SLP258 T01000056
Dest. Wx: KPDX 160753Z 12004KT 10SM BKN039 12/09 A3016 RMK AO2 SLP212 T01170094 401890083
Notes:

Financial History
Total Freight: 31,152lbs
Average Load: 31,152lbs/flt
Fuel Used: 19,583lbs
Avg. Fuel Used: 19,583lbs/flt
Fuel Expense: $4,112
Avg. Fuel Expense: $4,112
Avg. Fuel Cost: $0.21/lbs
Total Gross Income: $68,223
Pilot Pay: $169
Total Expenses: $9,793
Total Revenue: $53,647
Average Revenue: $68,222.88